createdAt,value
2018-12-15T00:03:59.993Z,102514.20
2018-12-15T00:09:05.799Z,102512.51
2018-12-15T00:14:10.590Z,102522.77
2018-12-15T00:19:13.462Z,102519.36
2018-12-15T00:24:16.151Z,102516.78
2018-12-15T00:29:18.950Z,102527.47
2018-12-15T00:34:21.811Z,102527.88
2018-12-15T00:39:24.494Z,102529.16
2018-12-15T00:44:27.349Z,102535.16
2018-12-15T00:49:30.061Z,102533.88
2018-12-15T00:54:32.873Z,102533.00
2018-12-15T00:59:35.591Z,102535.58
2018-12-15T01:04:38.349Z,102537.72
2018-12-15T01:09:41.125Z,102541.56
2018-12-15T01:14:43.984Z,102538.59
2018-12-15T01:19:46.717Z,102539.44
2018-12-15T01:24:49.447Z,102547.98
2018-12-15T01:29:52.288Z,102543.27
2018-12-15T01:34:54.957Z,102546.69
2018-12-15T01:39:57.809Z,102546.27
2018-12-15T01:45:00.916Z,102543.70
2018-12-15T01:50:03.912Z,102543.27
2018-12-15T01:55:06.885Z,102538.98
2018-12-15T02:00:09.796Z,102536.84
2018-12-15T02:05:14.782Z,102536.43
2018-12-15T02:10:17.633Z,102536.87
2018-12-15T02:15:20.536Z,102534.72
2018-12-15T02:20:23.380Z,102539.86
2018-12-15T02:25:26.250Z,102537.28
2018-12-15T02:30:29.022Z,102529.13
2018-12-15T02:35:31.716Z,102537.27
2018-12-15T02:40:34.507Z,102533.86
2018-12-15T02:45:38.062Z,102530.87
2018-12-15T02:50:40.794Z,102533.44
2018-12-15T02:55:43.762Z,102530.00
2018-12-15T03:00:46.516Z,102531.28
2018-12-15T03:05:49.435Z,102544.11
2018-12-15T03:10:52.275Z,102543.70
2018-12-15T03:15:55.029Z,102538.55
2018-12-15T03:21:01.273Z,102546.67
2018-12-15T03:26:04.113Z,102542.84
2018-12-15T03:31:06.980Z,102548.83
2018-12-15T03:36:09.679Z,102543.68
2018-12-15T03:41:12.332Z,102550.55
2018-12-15T03:46:15.005Z,102549.24
2018-12-15T03:51:17.765Z,102550.53
2018-12-15T03:56:20.567Z,102549.23
2018-12-15T04:01:23.287Z,102550.52
2018-12-15T04:06:27.806Z,102542.41
2018-12-15T04:11:30.660Z,102547.55
2018-12-15T04:16:33.431Z,102539.42
2018-12-15T04:21:36.273Z,102538.13
2018-12-15T04:26:39.094Z,102538.59
2018-12-15T04:31:44.009Z,102543.27
2018-12-15T04:36:46.634Z,102537.72
2018-12-15T04:41:49.505Z,102540.29
2018-12-15T04:46:52.618Z,102546.70
2018-12-15T04:51:55.350Z,102549.24
2018-12-15T04:56:58.173Z,102559.50
2018-12-15T05:02:01.076Z,102553.55
2018-12-15T05:07:04.142Z,102548.84
2018-12-15T05:12:06.979Z,102553.11
2018-12-15T05:17:09.692Z,102552.23
2018-12-15T05:22:13.116Z,102557.81
2018-12-15T05:27:16.182Z,102553.52
2018-12-15T05:32:19.004Z,102551.38
2018-12-15T05:37:21.761Z,102551.78
2018-12-15T05:42:24.495Z,102553.05
2018-12-15T05:47:27.448Z,102553.92
2018-12-15T05:52:30.296Z,102554.36
2018-12-15T05:57:32.964Z,102556.91
2018-12-15T06:02:35.981Z,102555.22
2018-12-15T06:07:38.688Z,102556.06
2018-12-15T06:12:42.301Z,102558.63
2018-12-15T06:17:45.088Z,102562.92
2018-12-15T06:22:47.808Z,102569.31
2018-12-15T06:27:50.873Z,102572.30
2018-12-15T06:32:53.643Z,102571.04
2018-12-15T06:37:56.453Z,102582.98
2018-12-15T06:42:59.412Z,102588.58
2018-12-15T06:48:02.249Z,102593.27
2018-12-15T06:53:04.997Z,102590.69
2018-12-15T06:58:07.998Z,102595.80
2018-12-15T07:03:10.896Z,102591.52
2018-12-15T07:08:13.529Z,102590.23
2018-12-15T07:13:16.413Z,102587.24
2018-12-15T07:18:19.108Z,102588.93
2018-12-15T07:23:21.993Z,102591.09
2018-12-15T07:28:24.863Z,102594.50
2018-12-15T07:33:27.723Z,102594.94
2018-12-15T07:38:30.487Z,102591.95
2018-12-15T07:43:33.223Z,102596.22
2018-12-15T07:48:35.952Z,102602.64
2018-12-15T07:53:38.929Z,102603.51
2018-12-15T07:58:41.833Z,102606.48
2018-12-15T08:03:44.687Z,102606.48
2018-12-15T08:08:47.475Z,102605.20
2018-12-15T08:13:54.900Z,102608.20
2018-12-15T08:18:58.154Z,102614.19
2018-12-15T08:24:01.073Z,102617.59
2018-12-15T08:29:04.146Z,102612.08
2018-12-15T08:34:07.202Z,102618.91
2018-12-15T08:39:10.097Z,102613.78
2018-12-15T08:44:13.941Z,102609.11
2018-12-15T08:49:16.667Z,102611.69
2018-12-15T08:54:19.483Z,102596.30
2018-12-15T08:59:22.237Z,102602.28
2018-12-15T09:04:25.187Z,102606.14
2018-12-15T09:09:28.043Z,102598.05
2018-12-15T09:14:30.959Z,102592.06
2018-12-15T09:19:33.905Z,102598.50
2018-12-15T09:24:36.993Z,102601.91
2018-12-15T09:29:39.963Z,102601.48
2018-12-15T09:34:42.947Z,102601.05
2018-12-15T09:39:45.830Z,102594.22
2018-12-15T09:44:48.903Z,102601.08
2018-12-15T09:49:51.888Z,102590.80
2018-12-15T09:54:54.693Z,102588.68
2018-12-15T09:59:57.658Z,102583.97
2018-12-15T10:05:00.548Z,102578.84
2018-12-15T10:10:03.597Z,102567.30
2018-12-15T10:15:06.648Z,102572.43
2018-12-15T10:20:16.248Z,102564.29
2018-12-15T10:25:19.498Z,102557.86
2018-12-15T10:30:27.977Z,102554.45
2018-12-15T10:35:30.814Z,102547.59
2018-12-15T10:40:33.809Z,102540.34
2018-12-15T10:45:37.005Z,102540.77
2018-12-15T10:50:40.085Z,102533.47
2018-12-15T10:55:43.634Z,102527.91
2018-12-15T11:00:52.453Z,102529.19
2018-12-15T11:05:55.632Z,102520.63
2018-12-15T11:10:58.455Z,102521.07
2018-12-15T11:16:01.482Z,102519.77
2018-12-15T11:21:04.613Z,102515.48
2018-12-15T11:26:07.669Z,102511.20
2018-12-15T11:31:10.943Z,102509.92
2018-12-15T11:36:14.120Z,102509.47
2018-12-15T11:41:17.134Z,102504.76
2018-12-15T11:46:20.257Z,102504.76
2018-12-15T11:51:23.421Z,102494.48
2018-12-15T11:56:26.542Z,102501.75
2018-12-15T12:01:30.894Z,102487.21
2018-12-15T12:06:33.947Z,102488.95
2018-12-15T12:11:37.533Z,102492.38
2018-12-15T12:16:40.627Z,102479.95
2018-12-15T12:21:43.934Z,102475.25
2018-12-15T12:26:47.005Z,102471.40
2018-12-15T12:31:50.203Z,102470.54
2018-12-15T12:36:53.277Z,102468.41
2018-12-15T12:41:56.496Z,102474.36
2018-12-15T12:46:59.458Z,102469.20
2018-12-15T12:52:02.569Z,102468.78
2018-12-15T12:57:06.962Z,102458.94
2018-12-15T13:02:10.425Z,102458.05
2018-12-15T13:07:13.520Z,102453.35
2018-12-15T13:12:16.530Z,102450.78
2018-12-15T13:17:19.534Z,102446.93
2018-12-15T13:22:22.631Z,102439.20
2018-12-15T13:27:25.649Z,102449.05
2018-12-15T13:32:28.474Z,102452.05
2018-12-15T13:37:31.394Z,102444.36
2018-12-15T13:42:34.461Z,102446.07
2018-12-15T13:47:37.564Z,102448.19
2018-12-15T13:52:40.510Z,102447.33
2018-12-15T13:57:43.427Z,102458.47
2018-12-15T14:02:46.378Z,102450.76
2018-12-15T14:07:49.337Z,102452.49
2018-12-15T14:12:52.490Z,102453.34
2018-12-15T14:17:55.453Z,102448.62
2018-12-15T14:22:58.718Z,102451.63
2018-12-15T14:28:01.945Z,102450.80
2018-12-15T14:33:05.040Z,102445.66
2018-12-15T14:38:08.098Z,102450.36
2018-12-15T14:43:11.050Z,102446.51
2018-12-15T14:48:13.908Z,102443.94
2018-12-15T14:53:16.757Z,102441.80
2018-12-15T14:58:35.848Z,102441.38
2018-12-15T15:03:43.557Z,102434.52
2018-12-15T15:08:49.952Z,102435.41
2018-12-15T15:14:01.997Z,102434.97
2018-12-15T15:19:17.485Z,102422.97
2018-12-15T15:29:34.265Z,102405.86
2018-12-15T15:34:48.095Z,102410.56
2018-12-15T15:39:58.673Z,102409.31
2018-12-15T15:45:02.149Z,102401.61
2018-12-15T15:50:08.638Z,102400.75
2018-12-15T15:55:14.912Z,102399.47
2018-12-15T16:00:19.905Z,102390.47
2018-12-15T16:05:23.306Z,102393.48
2018-12-15T16:10:27.495Z,102386.20
2018-12-15T16:15:30.606Z,102384.05
2018-12-15T16:20:43.036Z,102372.52
2018-12-15T16:25:42.585Z,102375.94
2018-12-15T16:30:45.674Z,102363.10
2018-12-15T16:35:48.655Z,102361.36
2018-12-15T16:40:51.506Z,102360.50
2018-12-15T16:45:54.696Z,102354.94
2018-12-15T16:50:59.077Z,102356.23
2018-12-15T16:56:01.937Z,102353.23
2018-12-15T17:01:04.908Z,102354.52
2018-12-15T17:06:08.638Z,102349.38
2018-12-15T17:11:11.815Z,102348.95
2018-12-15T17:16:14.976Z,102343.80
2018-12-15T17:21:18.025Z,102337.84
2018-12-15T17:26:22.834Z,102342.13
2018-12-15T17:31:26.649Z,102340.38
2018-12-15T17:36:29.708Z,102330.11
2018-12-15T17:41:32.944Z,102331.80
2018-12-15T17:46:36.354Z,102322.41
2018-12-15T17:51:39.345Z,102315.98
2018-12-15T17:56:42.339Z,102310.44
2018-12-15T18:01:45.988Z,102298.89
2018-12-15T18:07:01.847Z,102305.71
2018-12-15T18:12:04.901Z,102304.85
2018-12-15T18:17:07.984Z,102294.58
2018-12-15T18:22:11.017Z,102292.87
2018-12-15T18:27:13.982Z,102285.19
2018-12-15T18:32:17.081Z,102280.91
2018-12-15T18:37:20.996Z,102275.77
2018-12-15T18:42:24.137Z,102262.95
2018-12-15T18:47:26.985Z,102264.23
2018-12-15T18:52:29.884Z,102257.81
2018-12-15T18:57:32.982Z,102250.97
2018-12-15T19:02:35.976Z,102248.83
2018-12-15T19:07:38.961Z,102247.09
2018-12-15T19:12:42.289Z,102236.81
2018-12-15T19:17:45.310Z,102228.25
2018-12-15T19:22:48.352Z,102226.14
2018-12-15T19:27:51.413Z,102227.42
2018-12-15T19:32:55.609Z,102221.03
2018-12-15T19:37:58.477Z,102216.75
2018-12-15T19:43:01.495Z,102215.89
2018-12-15T19:48:04.585Z,102207.37
2018-12-15T19:53:07.493Z,102201.80
2018-12-15T19:58:10.667Z,102204.80
2018-12-15T20:03:14.694Z,102194.10
2018-12-15T20:08:17.375Z,102195.36
2018-12-15T20:13:20.416Z,102187.22
2018-12-15T20:18:23.434Z,102179.09
2018-12-15T20:23:26.437Z,102165.86
2018-12-15T20:28:29.533Z,102157.30
2018-12-15T20:33:32.572Z,102150.88
2018-12-15T20:38:35.443Z,102145.74
2018-12-15T20:43:38.583Z,102142.75
2018-12-15T20:48:42.365Z,102137.64
2018-12-15T20:53:45.276Z,102127.80
2018-12-15T20:58:48.273Z,102127.80
2018-12-15T21:03:51.179Z,102126.95
2018-12-15T21:08:54.173Z,102118.84
2018-12-15T21:13:57.050Z,102116.28
2018-12-15T21:19:00.009Z,102107.72
2018-12-15T21:24:03.226Z,102104.30
2018-12-15T21:29:06.359Z,102098.77
2018-12-15T21:34:09.596Z,102091.89
2018-12-15T21:39:13.834Z,102085.47
2018-12-15T21:44:17.994Z,102074.34
2018-12-15T21:49:21.022Z,102076.92
2018-12-15T21:54:24.012Z,102064.08
2018-12-15T22:00:01.492Z,102057.66
2018-12-15T22:07:44.662Z,102040.52
2018-12-15T22:18:22.981Z,102030.70
2018-12-15T22:23:25.967Z,102017.44
2018-12-15T22:28:28.821Z,102008.45
2018-12-15T22:33:31.797Z,102001.19
2018-12-15T22:38:34.578Z,101996.05
2018-12-15T22:43:37.252Z,101981.89
2018-12-15T22:48:40.180Z,101975.52
2018-12-15T22:53:43.001Z,101971.66
2018-12-15T22:58:45.711Z,101974.27
2018-12-15T23:03:49.209Z,101958.41
2018-12-15T23:08:51.932Z,101955.41
2018-12-15T23:13:54.827Z,101946.84
2018-12-15T23:18:57.722Z,101939.53
2018-12-15T23:24:00.596Z,101931.82
2018-12-15T23:29:03.729Z,101923.22
2018-12-15T23:34:06.855Z,101910.42
2018-12-15T23:39:09.688Z,101904.39
2018-12-15T23:44:15.448Z,101900.53
2018-12-15T23:49:18.243Z,101897.13
2018-12-15T23:54:22.741Z,101880.95
2018-12-15T23:59:25.612Z,101876.67
